Maud, Kentucky
Current Conditions -  °F | °C
As of 12:55 PM on Friday 31 Oct 2014 (Local Time) from KDVK Reporting Station
Overcast Overcast  
Wind Chill: 45°   Ceiling: 800
Heat Index: 45°   Visibility: 7mi
Dew Point: 43°   Wind: 3mph
Humidity: 93%   Direction: 250°WSW
Pressure: 29.96"   Gusts: NA
Location:  37.7143°N, 85.2583°W
Report Text: KDVK 311655Z AUTO 25003KT 7SM SCT003 BKN008 OVC018 07/06 A2996 RMK AO2
Loading
Personal Weather Stations






























Interactive Weather Map
Tropical Storm Tracking
New forecast layout! Learn more

10-Day Weather Forecast

Advertisements
Track Severe Weather on mobile